Terminal Aerodrome Forecast
Issued by NWS Tulsa, OK

Home | Current Version | Previous Version | Text Only | Print | Product List | Glossary On
Versions: 1 2 3 4 5 6 7 8 9 10 11 12 13 14
000
FTUS44 KTSA 282300
TAFTUL
TAF
KTUL 282320Z 2900/2924 14010KT P6SM FEW250
     FM291200 16014G23KT P6SM BKN250
     FM291800 24010KT P6SM BKN120
     FM292100 35008KT P6SM BKN100=

USA.gov is the U.S. government's official web portal to all federal, state and local government web resources and services.